• Join FlightAware (Why Join?)
  • Login
  • US Flag 
08:15PM EST


 

Airport Tracker/Info


-or-


 

Live Flight TrackerFlight Track Log ✈ CTL13 ✈ 18-Apr-2013 ✈ KEYE - KMDW

Flight Track Log - Related Links

Times and Time Zones

All times are in EDT time to prevent confusion due to time zone crossing. See the CTL13 flight status page for this flight to view local times or setup timezone preferences in your user account.

Time Position Orientation Groundspeed Altitude Reporting Facility
EDT Latitude Longitude Course Direction KTS MPH feet Rate Location/Type
09:13PM 39.8971 -86.3638 323° Northwest  Level FlightAware Approximate
09:20PM 40.1624 -86.6457 323° Northwest  Level FlightAware Approximate
09:21PM 40.2009 -86.6856 320° Northwest  Level FlightAware Approximate
09:21PM 40.2167 -86.6850 320° Northwest 157 181 6,000  Level Chicago Center
09:22PM 40.2387 -86.7266 320° Northwest  Level FlightAware Approximate
09:22PM 40.2517 -86.7233 320° Northwest 164 189 6,000  Level Chicago Center
09:23PM 40.2765 -86.7677 320° Northwest  Level FlightAware Approximate
09:23PM 40.2961 -86.7497 336° Northwest 169 194 6,000  Level Chicago Center
09:24PM 40.3142 -86.8088 320° Northwest  Level FlightAware Approximate
09:24PM 40.3378 -86.7817 330° Northwest 172 198 6,000  Level Chicago Center
09:25PM 40.3520 -86.8499 320° Northwest  Level FlightAware Approximate
09:25PM 40.3803 -86.8108 332° Northwest 173 199 6,000  Level Chicago Center
09:26PM 40.3897 -86.8911 320° Northwest  Level FlightAware Approximate
09:26PM 40.4322 -86.8456 333° Northwest 174 200 6,000  Level Chicago Center
09:27PM 40.4714 -86.8747 330° Northwest 170 196 6,000  Level Chicago Center
09:28PM 40.5108 -86.9025 332° Northwest 166 191 6,000  Level Chicago Center
09:29PM 40.5514 -86.9297 333° Northwest 164 189 6,000  Level Chicago Center
09:30PM 40.5936 -86.9578 333° Northwest 166 191 6,000  Level Chicago Center
09:31PM 40.6372 -86.9842 335° Northwest 170 196 6,000  Level Chicago Center
09:32PM 40.6889 -87.0194 333° Northwest 173 199 6,000  Level Chicago Center
09:33PM 40.7319 -87.0508 331° Northwest 176 203 6,000  Level Chicago Center
09:34PM 40.7694 -87.0836 326° Northwest 171 197 6,000  Level Chicago Center
09:35PM 40.8017 -87.1225 318° Northwest 164 189 6,000  Level Chicago Center
09:36PM 40.8347 -87.1619 318° Northwest 162 186 6,000  Level Chicago Center
09:37PM 40.8747 -87.2072 319° Northwest 160 184 6,000  Level Chicago Center
09:38PM 40.9047 -87.2456 316° Northwest 156 180 6,000 -1,020 Level Chicago Center
09:39PM 40.9344 -87.2814 318° Northwest 151 174 4,000 -1,020 Descending Chicago Center
09:40PM 40.9711 -87.3111 329° Northwest 150 173 4,000  Level Chicago Center
09:41PM 41.0211 -87.3372 338° Northwest 171 197 4,000  Level Chicago Center
09:42PM 41.0708 -87.3614 340° North 183 211 4,000  Level Chicago Center
09:43PM 41.1214 -87.3847 341° North 190 219 4,000 2,100 Level Chicago Center
09:45PM 41.2167 -87.4333 339° North 171 197 9,800  Climbing Chicago TRACON
09:46PM 41.2378 -87.4456 336° Northwest 179 206 4,000 -3,240 Descending Chicago Center
09:47PM 41.2806 -87.4669 339° North 167 192 4,000  Level Chicago Center
09:48PM 41.3233 -87.4864 341° North 162 186 4,000  Level Chicago Center
09:49PM 41.3708 -87.5097 340° North 157 181 4,000  Level Chicago Center
09:50PM 41.4122 -87.5300 340° North 158 182 4,000  Level Chicago Center
09:51PM 41.4483 -87.5500 337° Northwest 159 183 4,000  Level Chicago Center
09:54PM 41.6000 -87.5697 354° North 184 212 4,000  Level Chicago Center
09:55PM 41.6417 -87.5592 11° North 210 242 4,000  Level Chicago Center
09:56PM 41.6842 -87.5817 338° Northwest 157 181 4,000  Level Chicago Center
09:57PM 41.6972 -87.6311 289° West 142 163 4,000 1,920 Level Chicago Center
09:58PM 41.7167 -87.6667 306° West 148 170 7,600 2,040 Climbing Chicago TRACON
09:59PM 41.7500 -87.7000 323° Northwest 138 159 7,800 -240 Climbing Chicago TRACON
10:00PM 41.7667 -87.7333 304° West 109 125 7,200 -600 Descending Chicago TRACON
10:02PM 41.7833 -87.7500 334° Northwest  Level FlightAware Approximate